createdAt,value
2023-05-01T00:01:06.862Z,1.90
2023-05-01T00:04:10.244Z,2.55
2023-05-01T00:07:15.951Z,3.42
2023-05-01T00:10:20.834Z,2.47
2023-05-01T00:13:25.176Z,2.60
2023-05-01T00:16:28.433Z,2.25
2023-05-01T00:19:31.732Z,2.50
2023-05-01T00:22:35.126Z,2.30
2023-05-01T00:25:38.265Z,1.90
2023-05-01T00:28:41.406Z,2.10
2023-05-01T00:31:44.747Z,1.90
2023-05-01T00:34:49.152Z,2.00
2023-05-01T00:37:52.361Z,2.88
2023-05-01T00:40:55.618Z,2.40
2023-05-01T00:43:59.058Z,2.40
2023-05-01T00:47:03.093Z,2.03
2023-05-01T00:50:07.272Z,2.23
2023-05-01T00:53:10.469Z,1.98
2023-05-01T00:56:13.842Z,2.00
2023-05-01T00:59:16.980Z,2.50
2023-05-01T01:02:21.080Z,2.20
2023-05-01T01:05:28.008Z,2.17
2023-05-01T01:08:46.973Z,2.20
2023-05-01T01:11:56.442Z,2.10
2023-05-01T01:15:30.050Z,2.30
2023-05-01T01:18:54.120Z,2.63
2023-05-01T01:22:07.579Z,2.40
2023-05-01T01:25:28.781Z,2.30
2023-05-01T01:28:37.943Z,2.60
2023-05-01T01:32:02.520Z,2.60
2023-05-01T01:35:21.778Z,2.37
2023-05-01T01:38:37.116Z,2.50
2023-05-01T01:41:42.115Z,4.53
2023-05-01T01:44:58.909Z,3.30
2023-05-01T01:48:04.358Z,2.60
2023-05-01T01:51:14.007Z,2.90
2023-05-01T01:54:27.849Z,3.03
2023-05-01T01:57:32.349Z,2.47
2023-05-01T02:00:37.100Z,2.60
2023-05-01T02:03:41.640Z,2.70
2023-05-01T02:06:46.793Z,2.30
2023-05-01T02:09:52.438Z,2.72
2023-05-01T02:12:58.859Z,2.60
2023-05-01T02:16:04.755Z,3.13
2023-05-01T02:19:08.324Z,2.53
2023-05-01T02:22:12.888Z,2.45
2023-05-01T02:25:17.308Z,2.22
2023-05-01T02:28:24.219Z,3.03
2023-05-01T02:31:27.516Z,1.80
2023-05-01T02:34:30.804Z,2.17
2023-05-01T02:37:34.562Z,1.80
2023-05-01T02:40:40.614Z,1.90
2023-05-01T02:43:45.484Z,1.88
2023-05-01T02:46:50.470Z,6.13
2023-05-01T02:49:55.449Z,1.95
2023-05-01T02:53:00.121Z,2.20
2023-05-01T02:56:30.152Z,2.13
2023-05-01T02:59:34.276Z,2.20
2023-05-01T03:02:37.462Z,2.38
2023-05-01T03:05:41.737Z,2.30
2023-05-01T03:11:48.705Z,2.00
2023-05-01T03:14:51.963Z,2.05
2023-05-01T03:17:55.204Z,2.50
2023-05-01T03:20:58.781Z,2.10
2023-05-01T03:24:03.842Z,2.50
2023-05-01T03:27:08.307Z,2.37
2023-05-01T03:30:12.257Z,2.00
2023-05-01T03:33:17.457Z,1.80
2023-05-01T03:36:20.778Z,2.10
2023-05-01T03:39:24.704Z,2.45
2023-05-01T03:42:50.582Z,1.98
2023-05-01T03:45:58.130Z,2.50
2023-05-01T03:49:01.975Z,2.63
2023-05-01T03:52:09.429Z,2.00
2023-05-01T03:55:12.832Z,2.17
2023-05-01T04:01:20.776Z,2.40
2023-05-01T04:04:24.749Z,2.40
2023-05-01T04:07:32.388Z,2.28
2023-05-01T04:10:36.772Z,2.17
2023-05-01T04:13:41.161Z,2.05
2023-05-01T04:16:44.490Z,2.20
2023-05-01T04:19:48.661Z,2.05
2023-05-01T04:22:51.787Z,2.08
2023-05-01T04:25:55.110Z,2.28
2023-05-01T04:28:58.456Z,2.90
2023-05-01T04:32:05.406Z,2.92
2023-05-01T04:35:09.631Z,2.33
2023-05-01T04:38:14.116Z,2.05
2023-05-01T04:41:18.017Z,2.10
2023-05-01T04:44:22.242Z,2.20
2023-05-01T04:47:25.827Z,1.80
2023-05-01T04:50:29.047Z,2.20
2023-05-01T04:53:32.724Z,2.10
2023-05-01T04:59:39.672Z,1.98
2023-05-01T05:02:43.176Z,1.90
2023-05-01T05:05:48.455Z,2.67
2023-05-01T05:08:52.721Z,2.55
2023-05-01T05:14:59.593Z,2.38
2023-05-01T05:18:05.130Z,2.00
2023-05-01T05:21:09.664Z,2.75
2023-05-01T05:24:14.121Z,2.03
2023-05-01T05:27:17.276Z,3.10
2023-05-01T05:30:20.554Z,2.28
2023-05-01T05:33:25.677Z,2.10
2023-05-01T05:36:29.421Z,2.42
2023-05-01T05:39:32.879Z,2.07
2023-05-01T05:42:36.187Z,1.90
2023-05-01T05:45:42.298Z,2.13
2023-05-01T05:48:45.790Z,2.05
2023-05-01T05:51:49.065Z,2.22
2023-05-01T05:54:52.436Z,2.10
2023-05-01T05:57:56.255Z,2.20
2023-05-01T06:00:59.548Z,2.30
2023-05-01T06:04:02.724Z,2.53
2023-05-01T06:07:07.574Z,2.50
2023-05-01T06:10:12.219Z,2.35
2023-05-01T06:13:16.254Z,2.88
2023-05-01T06:16:22.139Z,2.70
2023-05-01T06:19:25.429Z,3.10
2023-05-01T06:22:36.402Z,2.78
2023-05-01T06:25:50.424Z,2.60
2023-05-01T06:28:53.796Z,3.30
2023-05-01T06:31:57.147Z,3.20
2023-05-01T06:35:00.376Z,2.88
2023-05-01T06:38:04.170Z,2.90
2023-05-01T06:44:11.192Z,3.10
2023-05-01T06:47:14.671Z,3.10
2023-05-01T06:50:18.039Z,3.60
2023-05-01T06:53:21.690Z,3.42
2023-05-01T06:56:24.874Z,3.20
2023-05-01T06:59:28.818Z,3.80
2023-05-01T07:02:32.072Z,3.45
2023-05-01T07:05:35.223Z,3.15
2023-05-01T07:08:38.405Z,2.85
2023-05-01T07:11:43.005Z,3.72
2023-05-01T07:14:46.226Z,3.03
2023-05-01T07:17:49.496Z,3.33
2023-05-01T07:20:53.555Z,2.95
2023-05-01T07:23:56.693Z,3.17
2023-05-01T07:27:00.708Z,3.22
2023-05-01T07:30:05.852Z,3.08
2023-05-01T07:33:09.175Z,3.50
2023-05-01T07:36:12.602Z,3.28
2023-05-01T07:39:15.912Z,2.78
2023-05-01T07:42:19.006Z,4.40
2023-05-01T07:45:22.131Z,3.35
2023-05-01T07:48:26.017Z,3.45
2023-05-01T07:51:29.149Z,3.83
2023-05-01T07:54:32.340Z,3.30
2023-05-01T07:57:36.596Z,3.15
2023-05-01T08:00:39.838Z,2.70
2023-05-01T08:03:43.303Z,3.40
2023-05-01T08:06:46.518Z,3.10
2023-05-01T08:09:49.703Z,2.92
2023-05-01T08:12:52.846Z,2.70
2023-05-01T08:15:56.170Z,8.57
2023-05-01T08:19:02.977Z,3.15
2023-05-01T08:22:09.124Z,3.03
2023-05-01T08:25:13.241Z,3.47
2023-05-01T08:28:21.527Z,5.35
2023-05-01T08:31:25.982Z,4.20
2023-05-01T08:37:41.728Z,3.50
2023-05-01T08:40:53.964Z,3.88
2023-05-01T08:44:05.390Z,3.38
2023-05-01T08:47:16.091Z,3.40
2023-05-01T08:50:27.409Z,2.80
2023-05-01T08:53:36.915Z,2.75
2023-05-01T08:56:44.576Z,2.80
2023-05-01T08:59:59.042Z,3.10
2023-05-01T09:03:07.163Z,3.10
2023-05-01T09:06:18.103Z,3.00
2023-05-01T09:09:22.474Z,3.13
2023-05-01T09:12:27.838Z,2.67
2023-05-01T09:15:31.724Z,2.85
2023-05-01T09:21:40.773Z,9.40
2023-05-01T09:24:48.470Z,3.08
2023-05-01T09:27:52.989Z,2.97
2023-05-01T09:30:56.496Z,3.50
2023-05-01T09:34:08.737Z,3.20
2023-05-01T09:37:35.506Z,2.90
2023-05-01T09:40:41.496Z,3.03
2023-05-01T09:43:54.741Z,3.13
2023-05-01T09:47:00.824Z,3.30
2023-05-01T09:50:10.883Z,3.95
2023-05-01T09:53:14.907Z,3.33
2023-05-01T09:56:20.653Z,3.00
2023-05-01T09:59:24.057Z,2.88
2023-05-01T10:02:31.542Z,3.25
2023-05-01T10:05:45.392Z,2.58
2023-05-01T10:08:52.600Z,2.33
2023-05-01T10:11:58.507Z,1.92
2023-05-01T10:15:13.826Z,1.80
2023-05-01T10:18:27.377Z,1.95
2023-05-01T10:24:49.669Z,2.22
2023-05-01T10:27:54.184Z,1.75
2023-05-01T10:34:03.419Z,1.65
2023-05-01T10:37:39.002Z,2.00
2023-05-01T10:44:25.810Z,2.00
2023-05-01T10:47:31.535Z,2.15
2023-05-01T10:50:35.965Z,2.25
2023-05-01T10:53:41.652Z,2.50
2023-05-01T10:56:48.889Z,2.58
2023-05-01T11:00:02.661Z,2.55
2023-05-01T11:03:26.726Z,2.40
2023-05-01T11:06:33.168Z,2.58
2023-05-01T11:09:47.646Z,2.45
2023-05-01T11:12:53.919Z,2.65
2023-05-01T11:16:00.671Z,2.70
2023-05-01T11:19:08.642Z,2.30
2023-05-01T11:22:15.548Z,2.58
2023-05-01T11:25:27.990Z,2.20
2023-05-01T11:28:32.997Z,2.20
2023-05-01T11:31:36.757Z,1.90
2023-05-01T11:34:40.746Z,1.40
2023-05-01T11:37:50.277Z,2.10
2023-05-01T11:40:59.779Z,1.60
2023-05-01T11:44:02.846Z,1.60
2023-05-01T11:47:07.920Z,2.08
2023-05-01T11:50:12.071Z,3.10
2023-05-01T11:53:19.307Z,3.00
2023-05-01T11:56:26.991Z,2.00
2023-05-01T11:59:31.229Z,1.70
2023-05-01T12:02:34.596Z,1.20
2023-05-01T12:05:39.902Z,1.65
2023-05-01T12:08:51.772Z,2.17
2023-05-01T12:11:55.604Z,2.22
2023-05-01T12:14:59.538Z,2.30
2023-05-01T12:18:03.515Z,1.60
2023-05-01T12:21:06.790Z,1.83
2023-05-01T12:24:10.352Z,1.80
2023-05-01T12:27:17.069Z,1.67
2023-05-01T12:30:27.392Z,2.40
2023-05-01T12:33:30.871Z,3.83
2023-05-01T12:36:38.186Z,2.80
2023-05-01T12:39:45.337Z,3.10
2023-05-01T12:42:57.337Z,2.85
2023-05-01T12:46:01.158Z,2.00
2023-05-01T12:49:04.384Z,1.95
2023-05-01T12:52:09.648Z,1.25
2023-05-01T12:55:13.509Z,1.70
2023-05-01T12:58:20.811Z,1.58
2023-05-01T13:01:32.370Z,1.70
2023-05-01T13:04:38.460Z,1.80
2023-05-01T13:07:52.311Z,1.70
2023-05-01T13:10:57.293Z,1.60
2023-05-01T13:14:09.492Z,1.60
2023-05-01T13:17:13.713Z,1.27
2023-05-01T13:20:27.826Z,1.45
2023-05-01T13:23:31.296Z,1.40
2023-05-01T13:26:36.580Z,1.20
2023-05-01T13:29:42.380Z,1.05
2023-05-01T13:32:47.871Z,0.75
2023-05-01T13:35:51.118Z,0.80
2023-05-01T13:38:57.047Z,0.70
2023-05-01T13:42:04.480Z,1.00
2023-05-01T13:45:08.128Z,0.50
2023-05-01T13:48:11.570Z,0.75
2023-05-01T13:51:16.373Z,0.60
2023-05-01T13:54:20.421Z,0.70
2023-05-01T13:57:23.740Z,0.60
2023-05-01T14:00:27.609Z,0.60
2023-05-01T14:03:43.050Z,0.70
2023-05-01T14:06:48.074Z,0.50
2023-05-01T14:13:01.591Z,0.60
2023-05-01T14:16:28.309Z,0.80
2023-05-01T14:19:32.170Z,1.30
2023-05-01T14:22:54.033Z,0.90
2023-05-01T14:25:57.297Z,0.70
2023-05-01T14:29:00.442Z,0.80
2023-05-01T14:32:07.296Z,0.80
2023-05-01T14:35:11.094Z,1.02
2023-05-01T14:38:17.210Z,1.10
2023-05-01T14:41:20.474Z,0.70
2023-05-01T14:44:27.651Z,1.05
2023-05-01T14:47:30.978Z,1.60
2023-05-01T14:50:34.250Z,1.17
2023-05-01T14:53:37.627Z,1.10
2023-05-01T14:56:41.650Z,1.60
2023-05-01T14:59:44.848Z,1.43
2023-05-01T15:02:48.404Z,1.17
2023-05-01T15:05:51.685Z,1.02
2023-05-01T15:08:54.980Z,2.70
2023-05-01T15:11:59.096Z,1.20
2023-05-01T15:15:03.110Z,1.10
2023-05-01T15:18:06.314Z,1.07
2023-05-01T15:21:09.638Z,0.98
2023-05-01T15:24:12.877Z,1.13
2023-05-01T15:27:16.257Z,1.63
2023-05-01T15:30:19.450Z,1.50
2023-05-01T15:33:22.976Z,1.27
2023-05-01T15:36:27.630Z,1.00
2023-05-01T15:39:30.902Z,0.80
2023-05-01T15:42:34.220Z,0.90
2023-05-01T15:45:43.493Z,0.82
2023-05-01T15:48:47.512Z,0.90
2023-05-01T15:51:50.666Z,0.75
2023-05-01T15:54:53.876Z,0.98
2023-05-01T15:57:57.514Z,0.80
2023-05-01T16:01:00.658Z,0.63
2023-05-01T16:04:05.101Z,0.80
2023-05-01T16:07:09.453Z,0.90
2023-05-01T16:10:13.153Z,1.23
2023-05-01T16:13:16.520Z,0.80
2023-05-01T16:16:27.238Z,1.10
2023-05-01T16:19:30.842Z,1.17
2023-05-01T16:22:34.075Z,1.02
2023-05-01T16:25:37.265Z,1.00
2023-05-01T16:28:42.387Z,1.20
2023-05-01T16:31:49.242Z,1.10
2023-05-01T16:34:52.408Z,1.17
2023-05-01T16:37:56.796Z,1.30
2023-05-01T16:40:59.946Z,0.77
2023-05-01T16:44:03.165Z,0.70
2023-05-01T16:47:07.219Z,5.65
2023-05-01T16:50:10.669Z,3.30
2023-05-01T16:53:13.813Z,1.30
2023-05-01T16:56:17.099Z,1.00
2023-05-01T16:59:20.244Z,1.60
2023-05-01T17:02:23.382Z,2.20
2023-05-01T17:05:27.108Z,1.45
2023-05-01T17:08:30.274Z,1.10
2023-05-01T17:11:33.401Z,1.33
2023-05-01T17:14:36.826Z,1.55
2023-05-01T17:17:40.145Z,0.98
2023-05-01T17:20:43.507Z,1.10
2023-05-01T17:23:46.761Z,1.05
2023-05-01T17:26:50.279Z,1.10
2023-05-01T17:29:53.403Z,1.00
2023-05-01T17:32:57.852Z,0.70
2023-05-01T17:36:01.236Z,0.90
2023-05-01T17:39:04.814Z,0.93
2023-05-01T17:42:07.967Z,0.98
2023-05-01T17:45:12.021Z,0.90
2023-05-01T17:48:15.366Z,1.00
2023-05-01T17:51:18.803Z,0.60
2023-05-01T17:54:22.236Z,0.80
2023-05-01T17:57:25.532Z,0.70
2023-05-01T18:00:29.431Z,0.60
2023-05-01T18:03:35.727Z,0.60
2023-05-01T18:06:38.955Z,0.70
2023-05-01T18:09:42.163Z,0.90
2023-05-01T18:12:47.632Z,1.17
2023-05-01T18:15:51.982Z,1.10
2023-05-01T18:18:55.367Z,0.90
2023-05-01T18:22:00.990Z,1.05
2023-05-01T18:25:07.416Z,0.98
2023-05-01T18:28:13.814Z,1.00
2023-05-01T18:31:17.994Z,0.98
2023-05-01T18:34:22.572Z,0.88
2023-05-01T18:37:26.625Z,0.93
2023-05-01T18:40:29.768Z,0.90
2023-05-01T18:43:32.973Z,1.40
2023-05-01T18:46:36.264Z,1.10
2023-05-01T18:49:39.426Z,1.30
2023-05-01T18:52:43.087Z,1.60
2023-05-01T18:55:46.263Z,1.40
2023-05-01T18:58:49.687Z,1.33
2023-05-01T19:01:54.566Z,1.10
2023-05-01T19:08:05.780Z,1.00
2023-05-01T19:11:09.007Z,0.57
2023-05-01T19:14:12.132Z,0.60
2023-05-01T19:17:15.319Z,0.70
2023-05-01T19:20:18.558Z,0.65
2023-05-01T19:23:21.731Z,0.65
2023-05-01T19:26:25.807Z,0.90
2023-05-01T19:29:28.919Z,0.80
2023-05-01T19:32:32.089Z,0.98
2023-05-01T19:35:36.063Z,1.10
2023-05-01T19:38:39.313Z,1.10
2023-05-01T19:41:42.436Z,1.00
2023-05-01T19:44:45.633Z,1.08
2023-05-01T19:47:48.834Z,1.17
2023-05-01T19:50:52.477Z,0.80
2023-05-01T19:53:55.542Z,1.00
2023-05-01T19:56:59.506Z,1.10
2023-05-01T20:00:02.837Z,1.10
2023-05-01T20:03:13.619Z,1.15
2023-05-01T20:06:16.943Z,1.00
2023-05-01T20:09:20.218Z,1.00
2023-05-01T20:12:23.781Z,1.60
2023-05-01T20:15:26.930Z,1.70
2023-05-01T20:18:30.123Z,1.35
2023-05-01T20:21:33.503Z,1.23
2023-05-01T20:24:36.626Z,1.17
2023-05-01T20:27:40.818Z,0.90
2023-05-01T20:30:45.859Z,1.00
2023-05-01T20:33:49.221Z,2.35
2023-05-01T20:36:52.720Z,2.13
2023-05-01T20:39:56.025Z,2.10
2023-05-01T20:43:00.213Z,1.20
2023-05-01T20:46:03.570Z,1.55
2023-05-01T20:49:09.155Z,2.80
2023-05-01T20:52:12.394Z,3.58
2023-05-01T20:55:15.659Z,3.00
2023-05-01T20:58:18.797Z,3.00
2023-05-01T21:01:22.012Z,1.40
2023-05-01T21:04:25.309Z,0.90
2023-05-01T21:07:30.294Z,1.23
2023-05-01T21:13:36.534Z,1.27
2023-05-01T21:16:40.617Z,1.00
2023-05-01T21:19:46.678Z,1.40
2023-05-01T21:22:50.264Z,1.70
2023-05-01T21:25:55.340Z,1.50
2023-05-01T21:28:59.162Z,2.80
2023-05-01T21:32:04.493Z,2.72
2023-05-01T21:35:08.935Z,3.50
2023-05-01T21:38:12.321Z,2.75
2023-05-01T21:41:18.168Z,3.13
2023-05-01T21:44:23.262Z,2.78
2023-05-01T21:47:27.546Z,2.90
2023-05-01T21:50:36.002Z,3.17
2023-05-01T21:53:42.184Z,2.70
2023-05-01T21:56:45.384Z,2.50
2023-05-01T21:59:49.101Z,2.50
2023-05-01T22:02:52.779Z,2.85
2023-05-01T22:05:56.058Z,3.22
2023-05-01T22:08:59.214Z,2.00
2023-05-01T22:12:02.447Z,2.05
2023-05-01T22:15:07.601Z,1.77
2023-05-01T22:18:10.917Z,1.48
2023-05-01T22:21:14.010Z,1.50
2023-05-01T22:24:17.235Z,2.08
2023-05-01T22:27:20.488Z,1.90
2023-05-01T22:30:23.638Z,1.70
2023-05-01T22:33:26.906Z,1.85
2023-05-01T22:36:31.029Z,1.95
2023-05-01T22:39:37.495Z,2.35
2023-05-01T22:42:40.620Z,2.40
2023-05-01T22:45:43.738Z,1.98
2023-05-01T22:48:47.039Z,3.72
2023-05-01T22:51:50.152Z,2.60
2023-05-01T22:54:53.342Z,3.20
2023-05-01T22:57:56.472Z,1.80
2023-05-01T23:00:59.677Z,2.50
2023-05-01T23:04:02.955Z,2.53
2023-05-01T23:07:06.090Z,2.38
2023-05-01T23:10:09.727Z,2.65
2023-05-01T23:13:19.804Z,3.10
2023-05-01T23:16:22.969Z,3.65
2023-05-01T23:19:26.338Z,3.17
2023-05-01T23:22:31.022Z,2.53
2023-05-01T23:25:34.115Z,3.08
2023-05-01T23:28:44.775Z,2.15
2023-05-01T23:31:49.274Z,2.70
2023-05-01T23:34:54.188Z,2.15
2023-05-01T23:41:00.503Z,2.13
2023-05-01T23:44:03.650Z,2.13
2023-05-01T23:47:07.070Z,2.53
2023-05-01T23:50:10.800Z,2.30
2023-05-01T23:53:14.136Z,1.92
2023-05-01T23:56:17.309Z,1.90
2023-05-01T23:59:20.438Z,3.13
